sensor_id;sensor_type;location;lat;lon;timestamp;P1;durP1;ratioP1;P2;durP2;ratioP2
10226;SDS011;15634;48.766;2.272;2023-06-14T00:01:13;14.23;;;8.07;;
10226;SDS011;15634;48.766;2.272;2023-06-14T00:03:40;11.48;;;7.80;;
10226;SDS011;15634;48.766;2.272;2023-06-14T00:06:06;12.40;;;7.72;;
10226;SDS011;15634;48.766;2.272;2023-06-14T00:08:33;10.98;;;7.95;;
10226;SDS011;15634;48.766;2.272;2023-06-14T00:11:01;12.48;;;8.32;;
10226;SDS011;15634;48.766;2.272;2023-06-14T00:13:28;9.65;;;7.13;;
10226;SDS011;15634;48.766;2.272;2023-06-14T00:15:55;17.58;;;8.00;;
10226;SDS011;15634;48.766;2.272;2023-06-14T00:18:21;11.90;;;7.80;;
10226;SDS011;15634;48.766;2.272;2023-06-14T00:20:50;13.32;;;7.93;;
10226;SDS011;15634;48.766;2.272;2023-06-14T00:23:17;11.50;;;7.55;;
10226;SDS011;15634;48.766;2.272;2023-06-14T00:25:44;11.57;;;7.78;;
10226;SDS011;15634;48.766;2.272;2023-06-14T00:28:12;11.52;;;8.13;;
10226;SDS011;15634;48.766;2.272;2023-06-14T00:30:39;9.40;;;7.50;;
10226;SDS011;15634;48.766;2.272;2023-06-14T00:33:06;13.77;;;8.18;;
10226;SDS011;15634;48.766;2.272;2023-06-14T00:35:32;10.57;;;7.70;;
10226;SDS011;15634;48.766;2.272;2023-06-14T00:37:59;10.73;;;8.02;;
10226;SDS011;15634;48.766;2.272;2023-06-14T00:40:26;12.82;;;9.07;;
10226;SDS011;15634;48.766;2.272;2023-06-14T00:42:53;12.85;;;8.45;;
10226;SDS011;15634;48.766;2.272;2023-06-14T00:45:21;10.38;;;7.60;;
10226;SDS011;15634;48.766;2.272;2023-06-14T00:47:48;12.82;;;8.85;;
10226;SDS011;15634;48.766;2.272;2023-06-14T00:50:17;9.60;;;7.55;;
10226;SDS011;15634;48.766;2.272;2023-06-14T00:52:44;11.45;;;8.77;;
10226;SDS011;15634;48.766;2.272;2023-06-14T00:55:10;11.43;;;7.97;;
10226;SDS011;15634;48.766;2.272;2023-06-14T00:57:38;11.98;;;9.05;;
10226;SDS011;15634;48.766;2.272;2023-06-14T01:00:05;11.18;;;8.57;;
10226;SDS011;15634;48.766;2.272;2023-06-14T01:02:35;13.88;;;8.60;;
10226;SDS011;15634;48.766;2.272;2023-06-14T01:05:03;11.40;;;8.75;;
10226;SDS011;15634;48.766;2.272;2023-06-14T01:07:33;13.15;;;9.80;;
10226;SDS011;15634;48.766;2.272;2023-06-14T01:10:20;16.50;;;9.48;;
10226;SDS011;15634;48.766;2.272;2023-06-14T01:12:53;12.63;;;9.35;;
10226;SDS011;15634;48.766;2.272;2023-06-14T01:15:24;15.30;;;9.40;;
10226;SDS011;15634;48.766;2.272;2023-06-14T01:17:52;13.32;;;9.23;;
10226;SDS011;15634;48.766;2.272;2023-06-14T01:20:22;13.05;;;9.18;;
10226;SDS011;15634;48.766;2.272;2023-06-14T01:22:56;12.50;;;9.38;;
10226;SDS011;15634;48.766;2.272;2023-06-14T01:25:23;12.23;;;9.52;;
10226;SDS011;15634;48.766;2.272;2023-06-14T01:27:51;15.80;;;9.98;;
10226;SDS011;15634;48.766;2.272;2023-06-14T01:30:20;13.40;;;9.65;;
10226;SDS011;15634;48.766;2.272;2023-06-14T01:32:47;12.82;;;9.20;;
10226;SDS011;15634;48.766;2.272;2023-06-14T01:35:15;16.13;;;9.25;;
10226;SDS011;15634;48.766;2.272;2023-06-14T01:37:42;14.38;;;9.18;;
10226;SDS011;15634;48.766;2.272;2023-06-14T01:40:11;15.30;;;9.13;;
10226;SDS011;15634;48.766;2.272;2023-06-14T01:42:38;12.57;;;9.43;;
10226;SDS011;15634;48.766;2.272;2023-06-14T01:45:06;13.18;;;8.98;;
10226;SDS011;15634;48.766;2.272;2023-06-14T01:47:33;12.52;;;9.02;;
10226;SDS011;15634;48.766;2.272;2023-06-14T01:50:01;11.35;;;9.10;;
10226;SDS011;15634;48.766;2.272;2023-06-14T01:52:28;12.20;;;9.18;;
10226;SDS011;15634;48.766;2.272;2023-06-14T01:54:55;12.85;;;8.90;;
10226;SDS011;15634;48.766;2.272;2023-06-14T01:57:24;12.30;;;8.75;;
10226;SDS011;15634;48.766;2.272;2023-06-14T01:59:51;13.80;;;8.35;;
10226;SDS011;15634;48.766;2.272;2023-06-14T02:02:18;11.77;;;8.57;;
10226;SDS011;15634;48.766;2.272;2023-06-14T02:04:45;12.65;;;8.18;;
10226;SDS011;15634;48.766;2.272;2023-06-14T02:07:12;13.02;;;7.65;;
10226;SDS011;15634;48.766;2.272;2023-06-14T02:09:39;12.40;;;8.52;;
10226;SDS011;15634;48.766;2.272;2023-06-14T02:12:07;11.65;;;7.75;;
10226;SDS011;15634;48.766;2.272;2023-06-14T02:14:36;11.80;;;8.27;;
10226;SDS011;15634;48.766;2.272;2023-06-14T02:17:03;11.90;;;8.25;;
10226;SDS011;15634;48.766;2.272;2023-06-14T02:19:31;13.65;;;8.00;;
10226;SDS011;15634;48.766;2.272;2023-06-14T02:21:58;12.07;;;7.90;;
10226;SDS011;15634;48.766;2.272;2023-06-14T02:24:24;11.80;;;7.55;;
10226;SDS011;15634;48.766;2.272;2023-06-14T02:26:51;10.98;;;7.68;;
10226;SDS011;15634;48.766;2.272;2023-06-14T02:29:18;11.52;;;8.07;;
10226;SDS011;15634;48.766;2.272;2023-06-14T02:31:46;9.75;;;7.50;;
10226;SDS011;15634;48.766;2.272;2023-06-14T02:34:13;13.27;;;8.52;;
10226;SDS011;15634;48.766;2.272;2023-06-14T02:36:41;11.20;;;8.30;;
10226;SDS011;15634;48.766;2.272;2023-06-14T02:39:10;12.10;;;8.13;;
10226;SDS011;15634;48.766;2.272;2023-06-14T02:41:37;11.77;;;7.93;;
10226;SDS011;15634;48.766;2.272;2023-06-14T02:44:04;11.07;;;7.70;;
10226;SDS011;15634;48.766;2.272;2023-06-14T02:46:31;11.85;;;7.75;;
10226;SDS011;15634;48.766;2.272;2023-06-14T02:48:59;11.68;;;7.82;;
10226;SDS011;15634;48.766;2.272;2023-06-14T02:51:26;10.55;;;7.63;;
10226;SDS011;15634;48.766;2.272;2023-06-14T02:53:52;10.57;;;7.97;;
10226;SDS011;15634;48.766;2.272;2023-06-14T02:56:19;12.05;;;8.00;;
10226;SDS011;15634;48.766;2.272;2023-06-14T02:58:48;11.20;;;8.35;;
10226;SDS011;15634;48.766;2.272;2023-06-14T03:01:16;12.93;;;8.15;;
10226;SDS011;15634;48.766;2.272;2023-06-14T03:03:43;9.10;;;7.10;;
10226;SDS011;15634;48.766;2.272;2023-06-14T03:06:11;10.82;;;7.75;;
10226;SDS011;15634;48.766;2.272;2023-06-14T03:08:39;11.70;;;7.60;;
10226;SDS011;15634;48.766;2.272;2023-06-14T03:11:07;11.52;;;7.50;;
10226;SDS011;15634;48.766;2.272;2023-06-14T03:13:33;10.93;;;7.97;;
10226;SDS011;15634;48.766;2.272;2023-06-14T03:16:00;10.65;;;7.82;;
10226;SDS011;15634;48.766;2.272;2023-06-14T03:18:29;11.32;;;8.00;;
10226;SDS011;15634;48.766;2.272;2023-06-14T03:20:55;12.90;;;7.53;;
10226;SDS011;15634;48.766;2.272;2023-06-14T03:23:24;10.45;;;7.85;;
10226;SDS011;15634;48.766;2.272;2023-06-14T03:25:52;10.43;;;7.65;;
10226;SDS011;15634;48.766;2.272;2023-06-14T03:28:19;11.98;;;7.43;;
10226;SDS011;15634;48.766;2.272;2023-06-14T03:30:46;11.40;;;7.60;;
10226;SDS011;15634;48.766;2.272;2023-06-14T03:33:13;9.93;;;7.22;;
10226;SDS011;15634;48.766;2.272;2023-06-14T03:35:40;13.35;;;7.78;;
10226;SDS011;15634;48.766;2.272;2023-06-14T03:38:07;10.10;;;7.63;;
10226;SDS011;15634;48.766;2.272;2023-06-14T03:40:35;10.13;;;7.40;;
10226;SDS011;15634;48.766;2.272;2023-06-14T03:43:02;9.48;;;7.57;;
10226;SDS011;15634;48.766;2.272;2023-06-14T03:45:28;11.18;;;6.82;;
10226;SDS011;15634;48.766;2.272;2023-06-14T03:47:55;9.93;;;7.38;;
10226;SDS011;15634;48.766;2.272;2023-06-14T03:50:23;11.80;;;7.65;;
10226;SDS011;15634;48.766;2.272;2023-06-14T03:52:50;12.25;;;7.47;;
10226;SDS011;15634;48.766;2.272;2023-06-14T03:55:16;10.73;;;7.25;;
10226;SDS011;15634;48.766;2.272;2023-06-14T03:57:44;8.90;;;6.90;;
10226;SDS011;15634;48.766;2.272;2023-06-14T04:00:11;12.30;;;6.97;;
10226;SDS011;15634;48.766;2.272;2023-06-14T04:02:38;11.18;;;7.38;;
10226;SDS011;15634;48.766;2.272;2023-06-14T04:05:05;10.98;;;7.20;;
10226;SDS011;15634;48.766;2.272;2023-06-14T04:07:33;9.15;;;6.63;;
10226;SDS011;15634;48.766;2.272;2023-06-14T04:10:05;8.98;;;6.75;;
10226;SDS011;15634;48.766;2.272;2023-06-14T04:12:32;9.18;;;6.35;;
10226;SDS011;15634;48.766;2.272;2023-06-14T04:15:00;10.65;;;7.10;;
10226;SDS011;15634;48.766;2.272;2023-06-14T04:17:27;9.85;;;6.63;;
10226;SDS011;15634;48.766;2.272;2023-06-14T04:19:54;10.45;;;6.93;;
10226;SDS011;15634;48.766;2.272;2023-06-14T04:22:23;12.05;;;7.35;;
10226;SDS011;15634;48.766;2.272;2023-06-14T04:24:53;11.93;;;7.30;;
10226;SDS011;15634;48.766;2.272;2023-06-14T04:27:21;14.57;;;7.43;;
10226;SDS011;15634;48.766;2.272;2023-06-14T04:29:51;11.48;;;7.35;;
10226;SDS011;15634;48.766;2.272;2023-06-14T04:32:24;9.50;;;7.25;;
10226;SDS011;15634;48.766;2.272;2023-06-14T04:34:52;15.30;;;7.95;;
10226;SDS011;15634;48.766;2.272;2023-06-14T04:37:19;10.77;;;7.30;;
10226;SDS011;15634;48.766;2.272;2023-06-14T04:39:47;10.85;;;7.30;;
10226;SDS011;15634;48.766;2.272;2023-06-14T04:42:14;9.40;;;7.40;;
10226;SDS011;15634;48.766;2.272;2023-06-14T04:44:41;13.23;;;7.80;;
10226;SDS011;15634;48.766;2.272;2023-06-14T04:47:08;11.93;;;7.72;;
10226;SDS011;15634;48.766;2.272;2023-06-14T04:49:37;11.93;;;7.03;;
10226;SDS011;15634;48.766;2.272;2023-06-14T04:52:05;8.57;;;6.93;;
10226;SDS011;15634;48.766;2.272;2023-06-14T04:54:32;11.15;;;7.35;;
10226;SDS011;15634;48.766;2.272;2023-06-14T04:57:02;9.52;;;7.28;;
10226;SDS011;15634;48.766;2.272;2023-06-14T04:59:29;12.95;;;7.82;;
10226;SDS011;15634;48.766;2.272;2023-06-14T05:01:58;9.38;;;6.95;;
10226;SDS011;15634;48.766;2.272;2023-06-14T05:04:25;10.63;;;7.43;;
10226;SDS011;15634;48.766;2.272;2023-06-14T05:06:54;11.15;;;7.35;;
10226;SDS011;15634;48.766;2.272;2023-06-14T05:09:21;11.75;;;7.00;;
10226;SDS011;15634;48.766;2.272;2023-06-14T05:11:48;10.68;;;7.38;;
10226;SDS011;15634;48.766;2.272;2023-06-14T05:14:15;11.95;;;7.35;;
10226;SDS011;15634;48.766;2.272;2023-06-14T05:16:42;12.93;;;7.20;;
10226;SDS011;15634;48.766;2.272;2023-06-14T05:19:09;10.23;;;6.97;;
10226;SDS011;15634;48.766;2.272;2023-06-14T05:21:36;13.20;;;8.63;;
10226;SDS011;15634;48.766;2.272;2023-06-14T05:24:04;10.20;;;6.60;;
10226;SDS011;15634;48.766;2.272;2023-06-14T05:26:31;12.30;;;6.95;;
10226;SDS011;15634;48.766;2.272;2023-06-14T05:28:58;8.75;;;6.50;;
10226;SDS011;15634;48.766;2.272;2023-06-14T05:31:26;14.05;;;7.95;;
10226;SDS011;15634;48.766;2.272;2023-06-14T05:33:53;10.45;;;6.72;;
10226;SDS011;15634;48.766;2.272;2023-06-14T05:36:20;11.13;;;7.18;;
10226;SDS011;15634;48.766;2.272;2023-06-14T05:38:47;14.02;;;6.93;;
10226;SDS011;15634;48.766;2.272;2023-06-14T05:41:15;9.48;;;6.75;;
10226;SDS011;15634;48.766;2.272;2023-06-14T05:43:42;11.82;;;6.35;;
10226;SDS011;15634;48.766;2.272;2023-06-14T05:46:08;12.82;;;6.72;;
10226;SDS011;15634;48.766;2.272;2023-06-14T05:48:35;12.45;;;6.85;;
10226;SDS011;15634;48.766;2.272;2023-06-14T05:51:02;9.57;;;7.05;;
10226;SDS011;15634;48.766;2.272;2023-06-14T05:53:29;11.90;;;6.85;;
10226;SDS011;15634;48.766;2.272;2023-06-14T05:55:55;13.10;;;8.30;;
10226;SDS011;15634;48.766;2.272;2023-06-14T05:58:23;19.08;;;11.15;;
10226;SDS011;15634;48.766;2.272;2023-06-14T06:00:50;12.85;;;7.95;;
10226;SDS011;15634;48.766;2.272;2023-06-14T06:03:18;12.02;;;7.43;;
10226;SDS011;15634;48.766;2.272;2023-06-14T06:05:46;15.98;;;7.90;;
10226;SDS011;15634;48.766;2.272;2023-06-14T06:08:12;13.32;;;7.57;;
10226;SDS011;15634;48.766;2.272;2023-06-14T06:10:39;14.55;;;8.75;;
10226;SDS011;15634;48.766;2.272;2023-06-14T06:13:06;16.27;;;8.23;;
10226;SDS011;15634;48.766;2.272;2023-06-14T06:15:34;12.25;;;7.97;;
10226;SDS011;15634;48.766;2.272;2023-06-14T06:18:00;12.60;;;7.82;;
10226;SDS011;15634;48.766;2.272;2023-06-14T06:20:27;12.98;;;7.50;;
10226;SDS011;15634;48.766;2.272;2023-06-14T06:22:56;12.38;;;7.07;;
10226;SDS011;15634;48.766;2.272;2023-06-14T06:25:22;10.55;;;7.55;;
10226;SDS011;15634;48.766;2.272;2023-06-14T06:27:51;12.75;;;8.02;;
10226;SDS011;15634;48.766;2.272;2023-06-14T06:30:17;12.30;;;8.07;;
10226;SDS011;15634;48.766;2.272;2023-06-14T06:32:46;12.25;;;7.60;;
10226;SDS011;15634;48.766;2.272;2023-06-14T06:35:12;12.00;;;7.53;;
10226;SDS011;15634;48.766;2.272;2023-06-14T06:37:39;11.13;;;7.65;;
10226;SDS011;15634;48.766;2.272;2023-06-14T06:40:07;12.35;;;7.72;;
10226;SDS011;15634;48.766;2.272;2023-06-14T06:42:34;10.13;;;7.50;;
10226;SDS011;15634;48.766;2.272;2023-06-14T06:45:01;12.98;;;7.80;;
10226;SDS011;15634;48.766;2.272;2023-06-14T06:47:28;14.90;;;8.88;;
10226;SDS011;15634;48.766;2.272;2023-06-14T06:49:56;13.60;;;7.43;;
10226;SDS011;15634;48.766;2.272;2023-06-14T06:52:23;12.40;;;7.82;;
10226;SDS011;15634;48.766;2.272;2023-06-14T06:54:49;16.25;;;7.20;;
10226;SDS011;15634;48.766;2.272;2023-06-14T06:57:19;14.98;;;7.20;;
10226;SDS011;15634;48.766;2.272;2023-06-14T06:59:47;11.63;;;6.78;;
10226;SDS011;15634;48.766;2.272;2023-06-14T07:02:14;8.13;;;6.25;;
10226;SDS011;15634;48.766;2.272;2023-06-14T07:04:41;14.98;;;6.80;;
10226;SDS011;15634;48.766;2.272;2023-06-14T07:07:09;14.95;;;7.13;;
10226;SDS011;15634;48.766;2.272;2023-06-14T07:09:36;10.15;;;6.78;;
10226;SDS011;15634;48.766;2.272;2023-06-14T07:12:03;11.43;;;6.50;;
10226;SDS011;15634;48.766;2.272;2023-06-14T07:14:30;13.82;;;6.78;;
10226;SDS011;15634;48.766;2.272;2023-06-14T07:16:57;8.95;;;6.72;;
10226;SDS011;15634;48.766;2.272;2023-06-14T07:19:24;12.13;;;6.70;;
10226;SDS011;15634;48.766;2.272;2023-06-14T07:21:51;12.05;;;7.18;;
10226;SDS011;15634;48.766;2.272;2023-06-14T07:24:19;11.77;;;6.50;;
10226;SDS011;15634;48.766;2.272;2023-06-14T07:26:46;8.63;;;5.95;;
10226;SDS011;15634;48.766;2.272;2023-06-14T07:29:13;11.93;;;6.15;;
10226;SDS011;15634;48.766;2.272;2023-06-14T07:31:41;9.75;;;6.85;;
10226;SDS011;15634;48.766;2.272;2023-06-14T07:34:08;9.15;;;6.80;;
10226;SDS011;15634;48.766;2.272;2023-06-14T07:36:34;10.65;;;7.55;;
10226;SDS011;15634;48.766;2.272;2023-06-14T07:39:01;10.10;;;6.20;;
10226;SDS011;15634;48.766;2.272;2023-06-14T07:41:30;10.02;;;6.15;;
10226;SDS011;15634;48.766;2.272;2023-06-14T07:43:56;9.32;;;5.65;;
10226;SDS011;15634;48.766;2.272;2023-06-14T07:46:23;9.73;;;5.93;;
10226;SDS011;15634;48.766;2.272;2023-06-14T07:48:50;10.80;;;5.88;;
10226;SDS011;15634;48.766;2.272;2023-06-14T07:51:16;8.65;;;5.72;;
10226;SDS011;15634;48.766;2.272;2023-06-14T07:53:43;8.05;;;5.65;;
10226;SDS011;15634;48.766;2.272;2023-06-14T07:56:09;13.02;;;6.03;;
10226;SDS011;15634;48.766;2.272;2023-06-14T07:58:37;8.90;;;5.85;;
10226;SDS011;15634;48.766;2.272;2023-06-14T08:01:04;9.88;;;5.65;;
10226;SDS011;15634;48.766;2.272;2023-06-14T08:03:33;8.40;;;5.90;;
10226;SDS011;15634;48.766;2.272;2023-06-14T08:05:59;9.85;;;6.50;;
10226;SDS011;15634;48.766;2.272;2023-06-14T08:08:26;10.13;;;7.07;;
10226;SDS011;15634;48.766;2.272;2023-06-14T08:10:53;11.48;;;6.00;;
10226;SDS011;15634;48.766;2.272;2023-06-14T08:13:19;12.00;;;5.60;;
10226;SDS011;15634;48.766;2.272;2023-06-14T08:15:48;10.73;;;5.20;;
10226;SDS011;15634;48.766;2.272;2023-06-14T08:18:14;8.00;;;4.90;;
10226;SDS011;15634;48.766;2.272;2023-06-14T08:20:41;9.02;;;5.07;;
10226;SDS011;15634;48.766;2.272;2023-06-14T08:23:08;10.27;;;5.47;;
10226;SDS011;15634;48.766;2.272;2023-06-14T08:25:35;9.88;;;6.13;;
10226;SDS011;15634;48.766;2.272;2023-06-14T08:28:02;9.50;;;6.30;;
10226;SDS011;15634;48.766;2.272;2023-06-14T08:30:28;7.90;;;5.82;;
10226;SDS011;15634;48.766;2.272;2023-06-14T08:32:56;9.32;;;5.85;;
10226;SDS011;15634;48.766;2.272;2023-06-14T08:35:23;7.72;;;5.13;;
10226;SDS011;15634;48.766;2.272;2023-06-14T08:37:49;9.88;;;5.30;;
10226;SDS011;15634;48.766;2.272;2023-06-14T08:40:20;8.10;;;5.13;;
10226;SDS011;15634;48.766;2.272;2023-06-14T08:42:50;9.05;;;5.00;;
10226;SDS011;15634;48.766;2.272;2023-06-14T08:45:17;13.77;;;5.45;;
10226;SDS011;15634;48.766;2.272;2023-06-14T08:47:44;9.75;;;5.35;;
10226;SDS011;15634;48.766;2.272;2023-06-14T08:50:12;9.25;;;5.30;;
10226;SDS011;15634;48.766;2.272;2023-06-14T08:52:41;8.90;;;5.00;;
10226;SDS011;15634;48.766;2.272;2023-06-14T08:55:15;8.98;;;5.10;;
10226;SDS011;15634;48.766;2.272;2023-06-14T08:57:45;11.18;;;5.00;;
10226;SDS011;15634;48.766;2.272;2023-06-14T09:00:13;12.48;;;7.75;;
10226;SDS011;15634;48.766;2.272;2023-06-14T09:02:40;15.52;;;10.00;;
10226;SDS011;15634;48.766;2.272;2023-06-14T09:05:08;9.10;;;5.40;;
10226;SDS011;15634;48.766;2.272;2023-06-14T09:07:37;7.70;;;5.18;;
10226;SDS011;15634;48.766;2.272;2023-06-14T09:10:07;10.35;;;6.10;;
10226;SDS011;15634;48.766;2.272;2023-06-14T09:12:34;9.32;;;4.93;;
10226;SDS011;15634;48.766;2.272;2023-06-14T09:15:01;10.88;;;5.55;;
10226;SDS011;15634;48.766;2.272;2023-06-14T09:17:32;7.55;;;4.70;;
10226;SDS011;15634;48.766;2.272;2023-06-14T09:19:58;7.63;;;4.90;;
10226;SDS011;15634;48.766;2.272;2023-06-14T09:22:25;6.00;;;4.78;;
10226;SDS011;15634;48.766;2.272;2023-06-14T09:24:53;20.63;;;10.25;;
10226;SDS011;15634;48.766;2.272;2023-06-14T09:27:20;12.35;;;5.65;;
10226;SDS011;15634;48.766;2.272;2023-06-14T09:29:46;8.45;;;5.38;;
10226;SDS011;15634;48.766;2.272;2023-06-14T09:32:13;8.88;;;5.07;;
10226;SDS011;15634;48.766;2.272;2023-06-14T09:34:40;9.77;;;5.55;;
10226;SDS011;15634;48.766;2.272;2023-06-14T09:37:07;6.78;;;5.45;;
10226;SDS011;15634;48.766;2.272;2023-06-14T09:39:33;9.45;;;5.47;;
10226;SDS011;15634;48.766;2.272;2023-06-14T09:42:02;7.10;;;4.95;;
10226;SDS011;15634;48.766;2.272;2023-06-14T09:44:44;10.68;;;5.30;;
10226;SDS011;15634;48.766;2.272;2023-06-14T09:47:11;15.20;;;8.93;;
10226;SDS011;15634;48.766;2.272;2023-06-14T09:49:38;11.00;;;5.95;;
10226;SDS011;15634;48.766;2.272;2023-06-14T09:52:05;18.98;;;10.68;;
10226;SDS011;15634;48.766;2.272;2023-06-14T09:54:33;23.85;;;14.25;;
10226;SDS011;15634;48.766;2.272;2023-06-14T09:57:02;14.85;;;8.27;;
10226;SDS011;15634;48.766;2.272;2023-06-14T09:59:30;12.52;;;6.65;;
10226;SDS011;15634;48.766;2.272;2023-06-14T10:01:58;11.30;;;6.60;;
10226;SDS011;15634;48.766;2.272;2023-06-14T10:04:25;12.10;;;7.05;;
10226;SDS011;15634;48.766;2.272;2023-06-14T10:06:54;10.38;;;6.38;;
10226;SDS011;15634;48.766;2.272;2023-06-14T10:09:20;8.50;;;5.85;;
10226;SDS011;15634;48.766;2.272;2023-06-14T10:11:48;8.30;;;5.60;;
10226;SDS011;15634;48.766;2.272;2023-06-14T10:14:16;8.57;;;5.80;;
10226;SDS011;15634;48.766;2.272;2023-06-14T10:16:45;8.38;;;5.47;;
10226;SDS011;15634;48.766;2.272;2023-06-14T10:19:17;9.77;;;5.65;;
10226;SDS011;15634;48.766;2.272;2023-06-14T10:21:54;9.05;;;5.20;;
10226;SDS011;15634;48.766;2.272;2023-06-14T10:24:25;10.73;;;5.60;;
10226;SDS011;15634;48.766;2.272;2023-06-14T10:26:54;9.38;;;5.07;;
10226;SDS011;15634;48.766;2.272;2023-06-14T10:29:25;7.93;;;4.72;;
10226;SDS011;15634;48.766;2.272;2023-06-14T10:31:56;10.65;;;5.70;;
10226;SDS011;15634;48.766;2.272;2023-06-14T10:34:29;6.53;;;4.72;;
10226;SDS011;15634;48.766;2.272;2023-06-14T10:37:00;8.85;;;5.57;;
10226;SDS011;15634;48.766;2.272;2023-06-14T10:39:29;6.47;;;4.72;;
10226;SDS011;15634;48.766;2.272;2023-06-14T10:41:56;7.82;;;4.78;;
10226;SDS011;15634;48.766;2.272;2023-06-14T10:44:35;7.20;;;4.93;;
10226;SDS011;15634;48.766;2.272;2023-06-14T10:47:09;11.95;;;5.57;;
10226;SDS011;15634;48.766;2.272;2023-06-14T10:49:40;7.18;;;5.53;;
10226;SDS011;15634;48.766;2.272;2023-06-14T10:52:08;8.10;;;5.20;;
10226;SDS011;15634;48.766;2.272;2023-06-14T10:57:36;11.07;;;5.20;;
10226;SDS011;15634;48.766;2.272;2023-06-14T11:00:06;9.60;;;5.47;;
10226;SDS011;15634;48.766;2.272;2023-06-14T11:05:49;8.98;;;5.43;;
10226;SDS011;15634;48.766;2.272;2023-06-14T11:08:21;9.10;;;5.40;;
10226;SDS011;15634;48.766;2.272;2023-06-14T11:10:59;8.85;;;5.60;;
10226;SDS011;15634;48.766;2.272;2023-06-14T11:13:26;10.40;;;5.63;;
10226;SDS011;15634;48.766;2.272;2023-06-14T11:15:55;7.97;;;5.50;;
10226;SDS011;15634;48.766;2.272;2023-06-14T11:18:23;9.68;;;5.25;;
10226;SDS011;15634;48.766;2.272;2023-06-14T11:20:54;9.93;;;5.10;;
10226;SDS011;15634;48.766;2.272;2023-06-14T11:23:21;7.15;;;5.63;;
10226;SDS011;15634;48.766;2.272;2023-06-14T11:25:49;6.45;;;4.90;;
10226;SDS011;15634;48.766;2.272;2023-06-14T11:28:16;7.60;;;4.70;;
10226;SDS011;15634;48.766;2.272;2023-06-14T11:30:44;6.53;;;4.95;;
10226;SDS011;15634;48.766;2.272;2023-06-14T11:33:15;8.25;;;5.50;;
10226;SDS011;15634;48.766;2.272;2023-06-14T11:35:43;7.30;;;5.27;;
10226;SDS011;15634;48.766;2.272;2023-06-14T11:38:10;5.95;;;4.75;;
10226;SDS011;15634;48.766;2.272;2023-06-14T11:40:38;8.77;;;5.40;;
10226;SDS011;15634;48.766;2.272;2023-06-14T11:43:04;10.52;;;6.93;;
10226;SDS011;15634;48.766;2.272;2023-06-14T11:45:31;7.97;;;5.82;;
10226;SDS011;15634;48.766;2.272;2023-06-14T11:47:59;8.88;;;5.20;;
10226;SDS011;15634;48.766;2.272;2023-06-14T11:50:27;10.32;;;6.22;;
10226;SDS011;15634;48.766;2.272;2023-06-14T11:52:54;14.95;;;8.68;;
10226;SDS011;15634;48.766;2.272;2023-06-14T11:55:21;8.32;;;5.70;;
10226;SDS011;15634;48.766;2.272;2023-06-14T11:57:48;12.75;;;5.85;;
10226;SDS011;15634;48.766;2.272;2023-06-14T12:00:15;10.07;;;6.97;;
10226;SDS011;15634;48.766;2.272;2023-06-14T12:02:42;9.93;;;6.20;;
10226;SDS011;15634;48.766;2.272;2023-06-14T12:05:09;11.50;;;5.80;;
10226;SDS011;15634;48.766;2.272;2023-06-14T12:07:37;7.10;;;5.30;;
10226;SDS011;15634;48.766;2.272;2023-06-14T12:10:05;9.20;;;5.78;;
10226;SDS011;15634;48.766;2.272;2023-06-14T12:12:34;7.68;;;5.57;;
10226;SDS011;15634;48.766;2.272;2023-06-14T12:15:02;18.40;;;7.00;;
10226;SDS011;15634;48.766;2.272;2023-06-14T12:17:31;7.95;;;5.70;;
10226;SDS011;15634;48.766;2.272;2023-06-14T12:19:58;12.80;;;7.72;;
10226;SDS011;15634;48.766;2.272;2023-06-14T12:22:26;9.27;;;6.40;;
10226;SDS011;15634;48.766;2.272;2023-06-14T12:24:57;9.25;;;5.50;;
10226;SDS011;15634;48.766;2.272;2023-06-14T12:27:23;8.88;;;6.10;;
10226;SDS011;15634;48.766;2.272;2023-06-14T12:30:03;8.85;;;5.32;;
10226;SDS011;15634;48.766;2.272;2023-06-14T12:32:33;8.45;;;6.20;;
10226;SDS011;15634;48.766;2.272;2023-06-14T12:35:00;9.63;;;5.53;;
10226;SDS011;15634;48.766;2.272;2023-06-14T12:37:27;8.77;;;5.13;;
10226;SDS011;15634;48.766;2.272;2023-06-14T12:39:54;9.38;;;7.10;;
10226;SDS011;15634;48.766;2.272;2023-06-14T12:42:22;10.00;;;6.70;;
10226;SDS011;15634;48.766;2.272;2023-06-14T12:44:49;7.93;;;5.82;;
10226;SDS011;15634;48.766;2.272;2023-06-14T12:47:15;8.77;;;5.20;;
10226;SDS011;15634;48.766;2.272;2023-06-14T12:49:42;9.13;;;6.38;;
10226;SDS011;15634;48.766;2.272;2023-06-14T12:52:09;10.63;;;5.80;;
10226;SDS011;15634;48.766;2.272;2023-06-14T12:54:36;10.68;;;6.53;;
10226;SDS011;15634;48.766;2.272;2023-06-14T12:57:04;7.60;;;5.18;;
10226;SDS011;15634;48.766;2.272;2023-06-14T12:59:32;11.02;;;6.10;;
10226;SDS011;15634;48.766;2.272;2023-06-14T13:02:00;8.73;;;5.72;;
10226;SDS011;15634;48.766;2.272;2023-06-14T13:04:37;8.20;;;5.35;;
10226;SDS011;15634;48.766;2.272;2023-06-14T13:07:03;13.30;;;9.32;;
10226;SDS011;15634;48.766;2.272;2023-06-14T13:09:31;7.40;;;5.93;;
10226;SDS011;15634;48.766;2.272;2023-06-14T13:11:57;8.00;;;5.97;;
10226;SDS011;15634;48.766;2.272;2023-06-14T13:14:24;13.10;;;8.27;;
10226;SDS011;15634;48.766;2.272;2023-06-14T13:16:52;19.98;;;12.25;;
10226;SDS011;15634;48.766;2.272;2023-06-14T13:19:19;9.50;;;7.13;;
10226;SDS011;15634;48.766;2.272;2023-06-14T13:21:45;26.15;;;13.57;;
10226;SDS011;15634;48.766;2.272;2023-06-14T13:24:12;19.83;;;11.77;;
10226;SDS011;15634;48.766;2.272;2023-06-14T13:26:39;8.27;;;5.85;;
10226;SDS011;15634;48.766;2.272;2023-06-14T13:29:06;14.07;;;8.75;;
10226;SDS011;15634;48.766;2.272;2023-06-14T13:31:33;6.22;;;5.03;;
10226;SDS011;15634;48.766;2.272;2023-06-14T13:34:01;14.77;;;8.02;;
10226;SDS011;15634;48.766;2.272;2023-06-14T13:36:27;9.48;;;6.70;;
10226;SDS011;15634;48.766;2.272;2023-06-14T13:38:55;10.73;;;7.32;;
10226;SDS011;15634;48.766;2.272;2023-06-14T13:41:23;7.47;;;5.40;;
10226;SDS011;15634;48.766;2.272;2023-06-14T13:43:56;11.00;;;6.60;;
10226;SDS011;15634;48.766;2.272;2023-06-14T13:46:23;17.25;;;11.38;;
10226;SDS011;15634;48.766;2.272;2023-06-14T13:48:50;27.20;;;15.50;;
10226;SDS011;15634;48.766;2.272;2023-06-14T13:51:21;10.48;;;7.05;;
10226;SDS011;15634;48.766;2.272;2023-06-14T13:53:48;12.45;;;6.93;;
10226;SDS011;15634;48.766;2.272;2023-06-14T13:56:15;15.35;;;8.82;;
10226;SDS011;15634;48.766;2.272;2023-06-14T13:58:43;9.68;;;6.00;;
10226;SDS011;15634;48.766;2.272;2023-06-14T14:01:10;12.07;;;7.45;;
10226;SDS011;15634;48.766;2.272;2023-06-14T14:03:38;6.40;;;5.15;;
10226;SDS011;15634;48.766;2.272;2023-06-14T14:06:04;8.25;;;5.45;;
10226;SDS011;15634;48.766;2.272;2023-06-14T14:08:34;8.73;;;5.32;;
10226;SDS011;15634;48.766;2.272;2023-06-14T14:11:01;7.15;;;5.43;;
10226;SDS011;15634;48.766;2.272;2023-06-14T14:13:28;12.48;;;7.93;;
10226;SDS011;15634;48.766;2.272;2023-06-14T14:15:55;13.77;;;8.65;;
10226;SDS011;15634;48.766;2.272;2023-06-14T14:18:22;11.95;;;7.57;;
10226;SDS011;15634;48.766;2.272;2023-06-14T14:20:49;11.60;;;7.07;;
10226;SDS011;15634;48.766;2.272;2023-06-14T14:23:16;8.13;;;5.63;;
10226;SDS011;15634;48.766;2.272;2023-06-14T14:25:44;8.40;;;5.05;;
10226;SDS011;15634;48.766;2.272;2023-06-14T14:28:10;8.25;;;5.35;;
10226;SDS011;15634;48.766;2.272;2023-06-14T14:30:38;7.68;;;5.28;;
10226;SDS011;15634;48.766;2.272;2023-06-14T14:33:05;11.75;;;6.15;;
10226;SDS011;15634;48.766;2.272;2023-06-14T14:35:32;8.27;;;5.60;;
10226;SDS011;15634;48.766;2.272;2023-06-14T14:37:59;12.07;;;7.65;;
10226;SDS011;15634;48.766;2.272;2023-06-14T14:40:25;7.13;;;4.95;;
10226;SDS011;15634;48.766;2.272;2023-06-14T14:42:54;12.50;;;5.35;;
10226;SDS011;15634;48.766;2.272;2023-06-14T14:45:20;11.48;;;5.80;;
10226;SDS011;15634;48.766;2.272;2023-06-14T14:47:47;5.53;;;4.63;;